createdAt,value
2022-11-06T00:00:34.142Z,84.99
2022-11-06T00:01:34.224Z,84.99
2022-11-06T00:02:34.212Z,84.99
2022-11-06T00:03:34.183Z,85.10
2022-11-06T00:04:34.137Z,85.20
2022-11-06T00:05:34.086Z,85.30
2022-11-06T00:06:34.152Z,85.30
2022-11-06T00:07:34.089Z,85.41
2022-11-06T00:08:34.104Z,85.44
2022-11-06T00:09:34.057Z,85.55
2022-11-06T00:10:34.042Z,85.65
2022-11-06T00:11:34.029Z,85.75
2022-11-06T00:12:33.998Z,85.86
2022-11-06T00:13:34.020Z,85.86
2022-11-06T00:14:33.982Z,85.96
2022-11-06T00:15:33.979Z,85.86
2022-11-06T00:16:33.964Z,85.96
2022-11-06T00:17:33.960Z,86.16
2022-11-06T00:18:33.954Z,86.27
2022-11-06T00:19:33.932Z,86.27
2022-11-06T00:20:33.939Z,86.27
2022-11-06T00:21:33.903Z,86.27
2022-11-06T00:22:33.912Z,86.27
2022-11-06T00:23:33.885Z,86.27
2022-11-06T00:24:33.874Z,86.16
2022-11-06T00:25:33.867Z,86.27
2022-11-06T00:26:33.849Z,86.41
2022-11-06T00:27:33.891Z,86.52
2022-11-06T00:28:33.840Z,86.72
2022-11-06T00:29:34.022Z,86.72
2022-11-06T00:30:33.903Z,86.82
2022-11-06T00:31:33.814Z,86.72
2022-11-06T00:32:33.785Z,86.72
2022-11-06T00:33:33.786Z,86.61
2022-11-06T00:34:33.770Z,86.61
2022-11-06T00:35:33.749Z,86.72
2022-11-06T00:36:33.727Z,86.72
2022-11-06T00:37:33.744Z,86.82
2022-11-06T00:38:33.707Z,86.82
2022-11-06T00:39:33.722Z,86.93
2022-11-06T00:40:33.712Z,87.03
2022-11-06T00:41:33.682Z,87.03
2022-11-06T00:42:33.669Z,87.03
2022-11-06T00:43:33.678Z,87.13
2022-11-06T00:44:33.647Z,87.24
2022-11-06T00:45:33.662Z,87.24
2022-11-06T00:46:33.646Z,87.24
2022-11-06T00:47:33.611Z,87.24
2022-11-06T00:48:33.599Z,87.44
2022-11-06T00:49:33.609Z,87.44
2022-11-06T00:50:33.704Z,87.54
2022-11-06T00:51:33.605Z,87.54
2022-11-06T00:52:33.549Z,87.54
2022-11-06T00:53:33.555Z,87.54
2022-11-06T00:54:33.541Z,87.54
2022-11-06T00:55:33.537Z,87.54
2022-11-06T00:56:33.512Z,87.54
2022-11-06T00:57:33.509Z,87.65
2022-11-06T00:58:33.490Z,87.54
2022-11-06T00:59:34.942Z,87.44
2022-11-06T01:00:33.487Z,87.51
2022-11-06T01:01:33.589Z,87.60
2022-11-06T01:02:33.713Z,87.60
2022-11-06T01:03:33.524Z,87.60
2022-11-06T01:04:33.485Z,87.71
2022-11-06T01:05:33.436Z,87.81
2022-11-06T01:06:33.524Z,87.81
2022-11-06T01:07:33.485Z,87.92
2022-11-06T01:08:33.435Z,88.02
2022-11-06T01:09:33.377Z,88.02
2022-11-06T01:10:33.380Z,88.02
2022-11-06T01:11:52.561Z,88.02
2022-11-06T01:12:34.449Z,87.92
2022-11-06T01:13:33.321Z,87.92
2022-11-06T01:14:33.357Z,88.02
2022-11-06T01:15:33.309Z,88.02
2022-11-06T01:16:33.288Z,88.12
2022-11-06T01:17:33.273Z,88.23
2022-11-06T01:18:33.280Z,88.23
2022-11-06T01:19:33.271Z,88.23
2022-11-06T01:20:33.250Z,88.12
2022-11-06T01:21:33.241Z,88.12
2022-11-06T01:22:33.220Z,88.12
2022-11-06T01:23:33.204Z,88.08
2022-11-06T01:24:33.299Z,87.98
2022-11-06T01:25:33.190Z,88.08
2022-11-06T01:26:38.583Z,87.98
2022-11-06T01:27:34.216Z,88.08
2022-11-06T01:28:33.152Z,87.98
2022-11-06T01:29:33.144Z,87.98
2022-11-06T01:30:33.147Z,87.87
2022-11-06T01:31:33.115Z,87.87
2022-11-06T01:32:33.125Z,87.77
2022-11-06T01:33:33.092Z,87.67
2022-11-06T01:34:33.083Z,87.67
2022-11-06T01:35:33.101Z,87.57
2022-11-06T01:36:33.080Z,87.57
2022-11-06T01:37:34.016Z,87.57
2022-11-06T01:38:33.227Z,87.63
2022-11-06T01:39:33.054Z,87.52
2022-11-06T01:40:33.018Z,87.42
2022-11-06T01:41:33.013Z,87.32
2022-11-06T01:42:33.007Z,87.32
2022-11-06T01:43:32.990Z,87.22
2022-11-06T01:44:32.998Z,87.12
2022-11-06T01:45:32.955Z,87.12
2022-11-06T01:46:32.946Z,87.01
2022-11-06T01:47:32.949Z,86.80
2022-11-06T01:48:32.928Z,86.80
2022-11-06T01:49:32.917Z,86.70
2022-11-06T01:50:32.916Z,86.70
2022-11-06T01:51:32.899Z,86.46
2022-11-06T01:52:32.889Z,86.46
2022-11-06T01:53:32.889Z,86.35
2022-11-06T01:54:32.877Z,86.35
2022-11-06T01:55:32.880Z,86.35
2022-11-06T01:56:32.841Z,86.35
2022-11-06T01:57:32.835Z,86.35
2022-11-06T01:58:32.814Z,86.35
2022-11-06T01:59:32.811Z,86.25
2022-11-06T02:00:32.861Z,86.05
2022-11-06T02:01:32.901Z,86.15
2022-11-06T02:02:33.000Z,86.15
2022-11-06T02:03:32.762Z,86.25
2022-11-06T02:04:32.760Z,86.15
2022-11-06T02:05:32.746Z,86.15
2022-11-06T02:06:32.734Z,86.15
2022-11-06T02:07:32.738Z,86.15
2022-11-06T02:08:32.703Z,86.15
2022-11-06T02:09:32.688Z,86.15
2022-11-06T02:10:32.710Z,86.15
2022-11-06T02:11:32.671Z,86.15
2022-11-06T02:12:32.675Z,86.05
2022-11-06T02:13:32.658Z,86.05
2022-11-06T02:14:32.645Z,86.05
2022-11-06T02:15:32.647Z,86.05
2022-11-06T02:16:32.604Z,86.05
2022-11-06T02:17:32.603Z,86.05
2022-11-06T02:18:32.585Z,86.05
2022-11-06T02:19:32.584Z,85.94
2022-11-06T02:20:32.577Z,86.05
2022-11-06T02:21:33.534Z,86.05
2022-11-06T02:22:32.554Z,86.05
2022-11-06T02:23:32.549Z,86.05
2022-11-06T02:24:32.527Z,85.94
2022-11-06T02:25:32.519Z,86.05
2022-11-06T02:26:32.514Z,86.15
2022-11-06T02:27:32.507Z,86.15
2022-11-06T02:28:32.489Z,86.15
2022-11-06T02:29:32.471Z,86.35
2022-11-06T02:30:32.458Z,86.35
2022-11-06T02:31:32.457Z,86.35
2022-11-06T02:32:32.437Z,86.35
2022-11-06T02:33:32.418Z,86.46
2022-11-06T02:34:32.423Z,86.35
2022-11-06T02:35:32.419Z,86.25
2022-11-06T02:36:32.389Z,86.25
2022-11-06T02:37:32.383Z,86.25
2022-11-06T02:38:32.372Z,86.25
2022-11-06T02:39:32.361Z,86.35
2022-11-06T02:40:32.361Z,86.35
2022-11-06T02:41:32.335Z,86.46
2022-11-06T02:42:32.319Z,86.46
2022-11-06T02:43:32.315Z,86.56
2022-11-06T02:44:32.296Z,86.56
2022-11-06T02:45:32.296Z,86.56
2022-11-06T02:46:32.300Z,86.66
2022-11-06T02:47:32.271Z,86.66
2022-11-06T02:48:33.204Z,86.66
2022-11-06T02:49:32.262Z,86.66
2022-11-06T02:50:32.258Z,86.77
2022-11-06T02:51:32.219Z,86.66
2022-11-06T02:52:32.204Z,86.56
2022-11-06T02:53:32.219Z,86.56
2022-11-06T02:54:32.180Z,86.56
2022-11-06T02:55:32.194Z,86.56
2022-11-06T02:56:32.174Z,86.46
2022-11-06T02:57:32.150Z,86.56
2022-11-06T02:58:32.144Z,86.46
2022-11-06T02:59:32.125Z,86.46
2022-11-06T03:00:32.126Z,86.46
2022-11-06T03:01:32.276Z,86.35
2022-11-06T03:02:32.252Z,86.35
2022-11-06T03:03:32.075Z,86.25
2022-11-06T03:04:32.071Z,86.35
2022-11-06T03:05:32.085Z,86.15
2022-11-06T03:06:32.050Z,86.15
2022-11-06T03:07:32.037Z,86.05
2022-11-06T03:08:32.026Z,86.05
2022-11-06T03:09:32.012Z,86.05
2022-11-06T03:10:32.026Z,86.05
2022-11-06T03:11:31.989Z,86.05
2022-11-06T03:12:31.990Z,86.05
2022-11-06T03:13:31.981Z,86.05
2022-11-06T03:14:31.958Z,85.94
2022-11-06T03:15:31.957Z,86.05
2022-11-06T03:16:31.958Z,86.05
2022-11-06T03:17:31.930Z,86.05
2022-11-06T03:18:31.907Z,86.05
2022-11-06T03:19:31.900Z,85.84
2022-11-06T03:20:31.896Z,85.84
2022-11-06T03:21:32.852Z,85.74
2022-11-06T03:22:31.870Z,85.63
2022-11-06T03:23:31.872Z,85.63
2022-11-06T03:24:31.897Z,85.84
2022-11-06T03:25:31.837Z,85.84
2022-11-06T03:26:31.841Z,85.84
2022-11-06T03:27:31.812Z,85.74
2022-11-06T03:28:31.798Z,85.63
2022-11-06T03:29:31.794Z,85.63
2022-11-06T03:30:31.819Z,85.53
2022-11-06T03:31:31.772Z,85.63
2022-11-06T03:32:31.757Z,85.63
2022-11-06T03:33:31.762Z,85.74
2022-11-06T03:34:31.739Z,85.53
2022-11-06T03:35:31.738Z,85.53
2022-11-06T03:36:31.708Z,85.53
2022-11-06T03:37:31.706Z,85.43
2022-11-06T03:38:31.711Z,85.43
2022-11-06T03:39:31.695Z,85.43
2022-11-06T03:40:31.694Z,85.33
2022-11-06T03:41:31.681Z,85.28
2022-11-06T03:42:31.665Z,85.28
2022-11-06T03:43:32.626Z,85.18
2022-11-06T03:44:31.621Z,85.18
2022-11-06T03:45:31.630Z,85.08
2022-11-06T03:46:31.665Z,85.08
2022-11-06T03:47:31.593Z,85.08
2022-11-06T03:48:31.580Z,85.18
2022-11-06T03:49:31.572Z,85.18
2022-11-06T03:50:31.570Z,85.08
2022-11-06T03:51:31.563Z,85.18
2022-11-06T03:52:31.542Z,85.28
2022-11-06T03:53:31.549Z,85.39
2022-11-06T03:54:31.521Z,85.39
2022-11-06T03:55:31.500Z,85.49
2022-11-06T03:56:31.501Z,85.60
2022-11-06T03:57:31.489Z,85.49
2022-11-06T03:58:31.553Z,85.63
2022-11-06T03:59:31.450Z,85.74
2022-11-06T04:00:31.502Z,85.74
2022-11-06T04:01:31.573Z,85.84
2022-11-06T04:02:31.597Z,85.84
2022-11-06T04:03:31.406Z,85.84
2022-11-06T04:04:31.448Z,85.84
2022-11-06T04:05:31.401Z,85.84
2022-11-06T04:06:31.417Z,85.74
2022-11-06T04:07:31.402Z,85.74
2022-11-06T04:08:31.357Z,85.74
2022-11-06T04:09:31.345Z,85.80
2022-11-06T04:10:31.357Z,85.74
2022-11-06T04:11:31.328Z,85.74
2022-11-06T04:12:31.330Z,85.74
2022-11-06T04:13:32.256Z,85.74
2022-11-06T04:14:31.297Z,85.74
2022-11-06T04:15:31.274Z,85.74
2022-11-06T04:16:31.283Z,85.74
2022-11-06T04:17:31.252Z,85.63
2022-11-06T04:18:31.247Z,85.63
2022-11-06T04:19:31.227Z,85.74
2022-11-06T04:20:31.221Z,85.84
2022-11-06T04:21:31.227Z,85.84
2022-11-06T04:22:31.205Z,85.94
2022-11-06T04:23:31.191Z,86.05
2022-11-06T04:24:32.125Z,86.15
2022-11-06T04:25:31.168Z,86.15
2022-11-06T04:26:31.188Z,86.15
2022-11-06T04:27:31.133Z,86.15
2022-11-06T04:28:31.148Z,86.25
2022-11-06T04:29:31.126Z,86.35
2022-11-06T04:30:31.129Z,86.15
2022-11-06T04:31:31.106Z,86.25
2022-11-06T04:32:31.105Z,86.25
2022-11-06T04:33:31.071Z,86.25
2022-11-06T04:34:31.066Z,86.15
2022-11-06T04:35:31.072Z,86.05
2022-11-06T04:36:31.061Z,86.15
2022-11-06T04:37:31.041Z,86.15
2022-11-06T04:38:31.053Z,86.15
2022-11-06T04:39:31.004Z,86.15
2022-11-06T04:40:30.998Z,86.05
2022-11-06T04:41:30.991Z,86.05
2022-11-06T04:42:30.983Z,85.94
2022-11-06T04:43:30.955Z,85.94
2022-11-06T04:44:30.944Z,85.84
2022-11-06T04:45:30.956Z,85.74
2022-11-06T04:46:30.933Z,85.63
2022-11-06T04:47:30.941Z,85.84
2022-11-06T04:48:30.907Z,85.84
2022-11-06T04:49:30.897Z,85.94
2022-11-06T04:50:30.884Z,85.74
2022-11-06T04:51:30.878Z,85.74
2022-11-06T04:52:30.871Z,85.74
2022-11-06T04:53:30.924Z,85.74
2022-11-06T04:54:30.838Z,85.74
2022-11-06T04:55:30.831Z,85.63
2022-11-06T04:56:34.715Z,85.63
2022-11-06T04:57:30.817Z,85.53
2022-11-06T04:58:30.800Z,85.53
2022-11-06T04:59:30.779Z,85.53
2022-11-06T05:00:30.807Z,85.43
2022-11-06T05:01:30.904Z,85.33
2022-11-06T05:02:30.853Z,85.12
2022-11-06T05:03:31.685Z,85.02
2022-11-06T05:04:32.524Z,85.22
2022-11-06T05:05:30.728Z,85.22
2022-11-06T05:06:30.736Z,85.12
2022-11-06T05:07:30.717Z,84.91
2022-11-06T05:08:30.687Z,85.02
2022-11-06T05:09:30.671Z,84.98
2022-11-06T05:10:30.691Z,84.98
2022-11-06T05:11:30.648Z,84.88
2022-11-06T05:12:30.643Z,84.77
2022-11-06T05:13:30.632Z,84.67
2022-11-06T05:14:30.655Z,84.56
2022-11-06T05:15:30.611Z,84.47
2022-11-06T05:16:30.622Z,84.47
2022-11-06T05:17:36.162Z,84.36
2022-11-06T05:18:31.578Z,84.47
2022-11-06T05:19:30.567Z,84.36
2022-11-06T05:20:30.553Z,84.47
2022-11-06T05:21:30.534Z,84.47
2022-11-06T05:22:30.545Z,84.47
2022-11-06T05:23:30.506Z,84.36
2022-11-06T05:24:30.501Z,84.36
2022-11-06T05:25:30.500Z,84.36
2022-11-06T05:26:30.493Z,84.26
2022-11-06T05:27:30.473Z,84.36
2022-11-06T05:28:30.479Z,84.36
2022-11-06T05:29:30.455Z,84.47
2022-11-06T05:30:30.430Z,84.36
2022-11-06T05:31:30.428Z,84.36
2022-11-06T05:32:31.335Z,84.47
2022-11-06T05:33:30.393Z,84.47
2022-11-06T05:34:30.393Z,84.56
2022-11-06T05:35:30.376Z,84.67
2022-11-06T05:36:30.377Z,84.67
2022-11-06T05:37:30.370Z,84.56
2022-11-06T05:38:30.363Z,84.56
2022-11-06T05:39:30.329Z,84.56
2022-11-06T05:40:30.323Z,84.67
2022-11-06T05:41:30.317Z,84.56
2022-11-06T05:42:30.317Z,84.67
2022-11-06T05:43:30.310Z,84.71
2022-11-06T05:44:30.277Z,84.71
2022-11-06T05:45:30.259Z,84.61
2022-11-06T05:46:47.663Z,84.50
2022-11-06T05:47:31.260Z,84.61
2022-11-06T05:48:30.251Z,84.81
2022-11-06T05:49:30.221Z,84.91
2022-11-06T05:50:30.207Z,85.02
2022-11-06T05:51:30.195Z,85.02
2022-11-06T05:52:30.184Z,84.91
2022-11-06T05:53:30.195Z,84.91
2022-11-06T05:54:30.177Z,85.02
2022-11-06T05:55:30.153Z,85.02
2022-11-06T05:56:30.137Z,84.91
2022-11-06T05:57:30.137Z,84.81
2022-11-06T05:58:30.125Z,84.81
2022-11-06T05:59:30.142Z,84.81
2022-11-06T06:00:30.111Z,84.81
2022-11-06T06:01:30.210Z,84.91
2022-11-06T06:02:30.154Z,84.91
2022-11-06T06:03:30.533Z,84.81
2022-11-06T06:04:30.080Z,84.71
2022-11-06T06:05:30.371Z,84.81
2022-11-06T06:06:30.058Z,84.81
2022-11-06T06:07:30.023Z,84.81
2022-11-06T06:08:30.008Z,84.81
2022-11-06T06:09:29.998Z,84.81
2022-11-06T06:10:29.997Z,84.91
2022-11-06T06:11:29.984Z,85.02
2022-11-06T06:12:29.961Z,84.91
2022-11-06T06:13:29.960Z,84.91
2022-11-06T06:14:29.944Z,85.02
2022-11-06T06:15:29.935Z,85.02
2022-11-06T06:16:29.921Z,85.12
2022-11-06T06:17:29.908Z,85.12
2022-11-06T06:18:29.914Z,85.33
2022-11-06T06:19:29.896Z,85.33
2022-11-06T06:20:29.916Z,85.33
2022-11-06T06:21:29.904Z,85.22
2022-11-06T06:22:29.869Z,85.22
2022-11-06T06:23:29.867Z,85.33
2022-11-06T06:24:30.887Z,85.33
2022-11-06T06:25:29.826Z,85.33
2022-11-06T06:26:29.813Z,85.33
2022-11-06T06:27:29.899Z,85.12
2022-11-06T06:28:29.787Z,85.02
2022-11-06T06:29:29.785Z,84.91
2022-11-06T06:30:29.766Z,84.91
2022-11-06T06:31:29.756Z,84.91
2022-11-06T06:32:29.740Z,84.91
2022-11-06T06:33:29.730Z,84.91
2022-11-06T06:34:29.732Z,84.81
2022-11-06T06:35:29.736Z,84.81
2022-11-06T06:36:29.701Z,84.81
2022-11-06T06:37:29.698Z,84.81
2022-11-06T06:38:29.674Z,84.81
2022-11-06T06:39:29.657Z,84.71
2022-11-06T06:40:29.646Z,84.81
2022-11-06T06:41:29.652Z,84.91
2022-11-06T06:42:31.466Z,84.91
2022-11-06T06:43:30.568Z,84.81
2022-11-06T06:44:30.546Z,84.81
2022-11-06T06:45:30.534Z,84.81
2022-11-06T06:46:29.570Z,84.81
2022-11-06T06:47:29.559Z,84.91
2022-11-06T06:48:29.570Z,84.91
2022-11-06T06:49:29.563Z,84.71
2022-11-06T06:50:29.531Z,84.61
2022-11-06T06:51:29.530Z,84.61
2022-11-06T06:52:29.502Z,84.50
2022-11-06T06:53:29.504Z,84.61
2022-11-06T06:54:29.492Z,84.61
2022-11-06T06:55:29.475Z,84.61
2022-11-06T06:56:29.464Z,84.50
2022-11-06T06:57:29.446Z,84.50
2022-11-06T06:58:29.452Z,84.50
2022-11-06T06:59:29.431Z,84.50
2022-11-06T07:00:29.648Z,84.61
2022-11-06T07:01:29.548Z,84.50
2022-11-06T07:02:29.511Z,84.50
2022-11-06T07:03:29.394Z,84.50
2022-11-06T07:04:29.387Z,84.40
2022-11-06T07:05:29.366Z,84.40
2022-11-06T07:06:29.358Z,84.30
2022-11-06T07:07:29.333Z,84.40
2022-11-06T07:08:29.956Z,84.40
2022-11-06T07:09:29.316Z,84.50
2022-11-06T07:10:29.398Z,84.40
2022-11-06T07:11:29.287Z,84.40
2022-11-06T07:12:29.287Z,84.50
2022-11-06T07:13:34.387Z,84.50
2022-11-06T07:14:30.269Z,84.40
2022-11-06T07:15:29.308Z,84.40
2022-11-06T07:16:29.238Z,84.40
2022-11-06T07:17:29.232Z,84.40
2022-11-06T07:18:29.236Z,84.40
2022-11-06T07:19:29.215Z,84.30
2022-11-06T07:20:29.271Z,84.30
2022-11-06T07:21:29.181Z,84.20
2022-11-06T07:22:35.482Z,84.20
2022-11-06T07:23:30.165Z,84.20
2022-11-06T07:24:29.162Z,84.20
2022-11-06T07:25:29.148Z,84.05
2022-11-06T07:26:29.130Z,84.05
2022-11-06T07:27:29.120Z,83.85
2022-11-06T07:28:29.105Z,83.85
2022-11-06T07:29:29.145Z,83.85
2022-11-06T07:30:29.086Z,83.85
2022-11-06T07:31:29.091Z,83.95
2022-11-06T07:32:29.058Z,84.05
2022-11-06T07:33:30.017Z,84.05
2022-11-06T07:34:29.045Z,84.16
2022-11-06T07:35:29.033Z,84.05
2022-11-06T07:36:29.010Z,83.95
2022-11-06T07:37:29.006Z,83.75
2022-11-06T07:38:28.993Z,83.75
2022-11-06T07:39:28.996Z,83.95
2022-11-06T07:40:28.980Z,83.75
2022-11-06T07:41:28.973Z,83.50
2022-11-06T07:42:29.916Z,83.29
2022-11-06T07:43:28.949Z,83.09
2022-11-06T07:44:28.951Z,82.89
2022-11-06T07:45:28.930Z,82.78
2022-11-06T07:46:28.911Z,82.68
2022-11-06T07:47:28.903Z,82.68
2022-11-06T07:48:28.882Z,82.78
2022-11-06T07:49:29.834Z,82.68
2022-11-06T07:50:28.887Z,82.78
2022-11-06T07:51:28.843Z,82.68
2022-11-06T07:52:28.858Z,82.89
2022-11-06T07:53:28.834Z,82.99
2022-11-06T07:54:28.820Z,82.89
2022-11-06T07:55:28.815Z,82.89
2022-11-06T07:56:29.765Z,82.78
2022-11-06T07:57:28.774Z,82.68
2022-11-06T07:58:28.800Z,82.71
2022-11-06T07:59:28.756Z,82.71
2022-11-06T08:00:28.739Z,82.82
2022-11-06T08:01:28.831Z,82.92
2022-11-06T08:02:30.296Z,82.92
2022-11-06T08:03:28.715Z,83.03
2022-11-06T08:04:28.701Z,83.13
2022-11-06T08:05:28.686Z,83.23
2022-11-06T08:06:28.691Z,82.92
2022-11-06T08:07:28.668Z,83.03
2022-11-06T08:08:28.653Z,83.13
2022-11-06T08:09:28.648Z,82.82
2022-11-06T08:10:28.644Z,82.82
2022-11-06T08:11:28.624Z,82.82
2022-11-06T08:12:28.744Z,82.78
2022-11-06T08:13:28.814Z,82.57
2022-11-06T08:14:28.588Z,82.37
2022-11-06T08:15:28.589Z,82.37
2022-11-06T08:16:28.576Z,82.27
2022-11-06T08:17:28.547Z,82.17
2022-11-06T08:18:28.552Z,81.86
2022-11-06T08:19:28.838Z,81.96
2022-11-06T08:20:28.513Z,81.55
2022-11-06T08:21:28.506Z,81.55
2022-11-06T08:22:28.839Z,81.30
2022-11-06T08:23:28.489Z,81.20
2022-11-06T08:24:28.472Z,80.90
2022-11-06T08:25:28.474Z,80.79
2022-11-06T08:26:28.458Z,80.69
2022-11-06T08:27:28.434Z,80.79
2022-11-06T08:28:28.438Z,80.14
2022-11-06T08:29:28.421Z,80.14
2022-11-06T08:30:28.406Z,80.14
2022-11-06T08:31:28.407Z,80.14
2022-11-06T08:32:28.409Z,80.14
2022-11-06T08:33:28.384Z,80.21
2022-11-06T08:34:28.431Z,80.10
2022-11-06T08:35:28.359Z,79.80
2022-11-06T08:36:28.361Z,79.38
2022-11-06T08:37:28.333Z,78.63
2022-11-06T08:38:28.375Z,78.53
2022-11-06T08:39:28.302Z,78.53
2022-11-06T08:40:31.144Z,78.12
2022-11-06T08:41:28.298Z,77.91
2022-11-06T08:42:28.293Z,78.02
2022-11-06T08:43:28.263Z,78.02
2022-11-06T08:44:28.263Z,78.25
2022-11-06T08:45:28.247Z,78.77
2022-11-06T08:46:28.223Z,78.67
2022-11-06T08:47:28.223Z,78.97
2022-11-06T08:48:28.203Z,79.08
2022-11-06T08:49:28.213Z,79.38
2022-11-06T08:50:28.177Z,79.18
2022-11-06T08:51:28.185Z,79.59
2022-11-06T08:52:33.678Z,79.49
2022-11-06T08:53:29.169Z,79.69
2022-11-06T08:54:28.161Z,79.69
2022-11-06T08:55:28.130Z,79.80
2022-11-06T08:56:28.119Z,79.80
2022-11-06T08:57:28.116Z,80.00
2022-11-06T08:58:28.108Z,80.10
2022-11-06T08:59:28.079Z,80.21
2022-11-06T09:00:28.094Z,79.90
2022-11-06T09:01:28.234Z,79.90
2022-11-06T09:02:28.080Z,79.80
2022-11-06T09:03:28.188Z,79.80
2022-11-06T09:04:28.471Z,79.80
2022-11-06T09:05:28.025Z,80.82
2022-11-06T09:06:29.456Z,81.02
2022-11-06T09:07:28.069Z,80.72
2022-11-06T09:08:27.989Z,81.02
2022-11-06T09:09:28.004Z,80.41
2022-11-06T09:10:27.973Z,81.34
2022-11-06T09:11:27.945Z,80.72
2022-11-06T09:12:27.934Z,80.51
2022-11-06T09:13:27.940Z,80.41
2022-11-06T09:14:27.919Z,80.51
2022-11-06T09:15:27.912Z,80.41
2022-11-06T09:16:27.881Z,80.21
2022-11-06T09:17:27.876Z,80.62
2022-11-06T09:18:27.866Z,80.41
2022-11-06T09:19:27.863Z,80.51
2022-11-06T09:20:27.836Z,80.07
2022-11-06T09:21:27.829Z,80.58
2022-11-06T09:22:27.821Z,80.17
2022-11-06T09:23:27.803Z,80.17
2022-11-06T09:24:57.098Z,79.72
2022-11-06T09:25:28.776Z,79.52
2022-11-06T09:26:27.778Z,78.97
2022-11-06T09:27:27.763Z,79.48
2022-11-06T09:28:27.758Z,79.48
2022-11-06T09:29:27.762Z,78.86
2022-11-06T09:30:27.772Z,79.38
2022-11-06T09:31:27.738Z,79.17
2022-11-06T09:32:27.698Z,78.56
2022-11-06T09:33:27.688Z,78.25
2022-11-06T09:34:27.677Z,78.66
2022-11-06T09:35:27.680Z,78.25
2022-11-06T09:36:27.677Z,78.45
2022-11-06T09:37:27.660Z,78.86
2022-11-06T09:38:28.604Z,78.35
2022-11-06T09:39:28.579Z,78.66
2022-11-06T09:40:27.608Z,78.56
2022-11-06T09:41:27.614Z,78.66
2022-11-06T09:42:27.608Z,78.45
2022-11-06T09:43:58.225Z,78.76
2022-11-06T09:44:28.561Z,78.93
2022-11-06T09:45:27.562Z,78.21
2022-11-06T09:46:27.569Z,78.01
2022-11-06T09:47:27.550Z,78.63
2022-11-06T09:48:27.524Z,79.24
2022-11-06T09:49:27.526Z,78.21
2022-11-06T09:50:27.510Z,77.80
2022-11-06T09:51:27.504Z,78.31
2022-11-06T09:52:27.481Z,78.31
2022-11-06T09:53:27.687Z,77.76
2022-11-06T09:54:27.637Z,77.19
2022-11-06T09:55:27.456Z,77.50
2022-11-06T09:56:27.444Z,77.39
2022-11-06T09:57:27.423Z,77.80
2022-11-06T09:58:27.404Z,77.39
2022-11-06T09:59:27.412Z,77.60
2022-11-06T10:00:27.387Z,77.60
2022-11-06T10:01:27.797Z,77.80
2022-11-06T10:02:27.479Z,77.80
2022-11-06T10:03:27.354Z,77.46
2022-11-06T10:04:27.358Z,77.05
2022-11-06T10:05:27.334Z,76.75
2022-11-06T10:06:27.320Z,76.84
2022-11-06T10:07:27.341Z,76.84
2022-11-06T10:08:27.317Z,76.54
2022-11-06T10:09:27.282Z,76.43
2022-11-06T10:10:27.278Z,76.43
2022-11-06T10:11:27.273Z,76.54
2022-11-06T10:12:27.243Z,76.34
2022-11-06T10:13:27.240Z,76.54
2022-11-06T10:14:27.237Z,76.34
2022-11-06T10:15:27.229Z,76.34
2022-11-06T10:16:28.163Z,76.23
2022-11-06T10:17:28.151Z,76.34
2022-11-06T10:18:27.185Z,76.34
2022-11-06T10:19:27.179Z,76.43
2022-11-06T10:20:27.589Z,76.75
2022-11-06T10:21:27.151Z,76.61
2022-11-06T10:22:27.138Z,76.61
2022-11-06T10:23:27.131Z,76.20
2022-11-06T10:24:27.107Z,75.99
2022-11-06T10:25:27.128Z,75.68
2022-11-06T10:26:32.662Z,75.34
2022-11-06T10:27:28.101Z,75.45
2022-11-06T10:28:27.063Z,74.97
2022-11-06T10:29:27.087Z,74.66
2022-11-06T10:30:27.039Z,75.17
2022-11-06T10:31:27.049Z,75.17
2022-11-06T10:32:27.025Z,75.27
2022-11-06T10:33:27.004Z,75.38
2022-11-06T10:34:27.011Z,75.17
2022-11-06T10:35:26.984Z,74.76
2022-11-06T10:36:26.965Z,74.87
2022-11-06T10:37:26.989Z,75.48
2022-11-06T10:38:26.957Z,75.27
2022-11-06T10:39:26.964Z,74.87
2022-11-06T10:40:26.936Z,74.56
2022-11-06T10:41:26.910Z,74.76
2022-11-06T10:42:26.899Z,74.84
2022-11-06T10:43:26.910Z,74.84
2022-11-06T10:44:26.881Z,74.63
2022-11-06T10:45:26.868Z,74.63
2022-11-06T10:46:26.862Z,74.93
2022-11-06T10:47:26.856Z,74.84
2022-11-06T10:48:30.415Z,74.63
2022-11-06T10:49:27.830Z,74.93
2022-11-06T10:50:26.982Z,74.52
2022-11-06T10:51:26.801Z,74.93
2022-11-06T10:52:26.791Z,74.32
2022-11-06T10:53:26.806Z,74.22
2022-11-06T10:54:27.709Z,74.52
2022-11-06T10:55:26.770Z,74.39
2022-11-06T10:56:26.895Z,73.98
2022-11-06T10:57:26.745Z,74.29
2022-11-06T10:58:26.769Z,74.59
2022-11-06T10:59:26.717Z,74.18
2022-11-06T11:00:26.695Z,74.90
2022-11-06T11:01:26.910Z,74.08
2022-11-06T11:02:26.795Z,73.77
2022-11-06T11:03:26.681Z,73.68
2022-11-06T11:04:26.663Z,73.88
2022-11-06T11:05:26.648Z,73.68
2022-11-06T11:06:26.633Z,73.68
2022-11-06T11:07:26.628Z,73.54
2022-11-06T11:08:26.636Z,73.23
2022-11-06T11:09:26.611Z,73.33
2022-11-06T11:10:26.588Z,73.23
2022-11-06T11:11:26.568Z,72.92
2022-11-06T11:12:26.570Z,72.82
2022-11-06T11:13:26.573Z,72.62
2022-11-06T11:14:26.553Z,72.72
2022-11-06T11:15:27.741Z,72.92
2022-11-06T11:16:26.534Z,73.13
2022-11-06T11:17:26.529Z,72.92
2022-11-06T11:18:26.492Z,72.31
2022-11-06T11:19:26.498Z,71.91
2022-11-06T11:20:26.480Z,72.11
2022-11-06T11:21:26.479Z,71.97
2022-11-06T11:22:31.969Z,72.07
2022-11-06T11:23:27.523Z,71.87
2022-11-06T11:24:26.440Z,72.07
2022-11-06T11:25:26.420Z,72.07
2022-11-06T11:26:26.404Z,72.07
2022-11-06T11:27:26.394Z,72.07
2022-11-06T11:28:26.378Z,71.97
2022-11-06T11:29:26.395Z,71.87
2022-11-06T11:30:26.374Z,71.67
2022-11-06T11:31:26.354Z,71.87
2022-11-06T11:32:27.301Z,71.97
2022-11-06T11:33:26.336Z,71.73
2022-11-06T11:34:26.316Z,71.53
2022-11-06T11:35:26.299Z,71.73
2022-11-06T11:36:26.288Z,71.94
2022-11-06T11:37:26.306Z,71.63
2022-11-06T11:38:26.273Z,71.22
2022-11-06T11:39:26.278Z,71.33
2022-11-06T11:40:26.249Z,71.43
2022-11-06T11:41:26.266Z,71.12
2022-11-06T11:42:26.228Z,71.02
2022-11-06T11:43:26.214Z,71.22
2022-11-06T11:44:26.225Z,70.81
2022-11-06T11:45:26.192Z,70.61
2022-11-06T11:46:26.191Z,70.72
2022-11-06T11:47:26.216Z,70.51
2022-11-06T11:48:26.151Z,71.02
2022-11-06T11:49:26.137Z,70.89
2022-11-06T11:50:26.147Z,70.37
2022-11-06T11:51:26.150Z,70.37
2022-11-06T11:52:26.101Z,70.17
2022-11-06T11:53:26.101Z,70.07
2022-11-06T11:54:26.140Z,69.46
2022-11-06T11:55:26.072Z,69.46
2022-11-06T11:56:49.688Z,69.46
2022-11-06T11:57:27.070Z,69.15
2022-11-06T11:58:26.083Z,68.74
2022-11-06T11:59:26.043Z,68.84
2022-11-06T12:00:26.019Z,69.05
2022-11-06T12:01:26.033Z,68.95
2022-11-06T12:02:28.096Z,68.95
2022-11-06T12:03:26.092Z,69.05
2022-11-06T12:04:25.967Z,68.81
2022-11-06T12:05:26.498Z,68.81
2022-11-06T12:06:25.950Z,68.61
2022-11-06T12:07:25.940Z,68.10
2022-11-06T12:08:26.027Z,68.44
2022-11-06T12:09:25.944Z,68.84
2022-11-06T12:10:25.921Z,68.54
2022-11-06T12:11:26.024Z,68.13
2022-11-06T12:12:25.886Z,67.93
2022-11-06T12:13:25.879Z,68.13
2022-11-06T12:14:25.866Z,68.44
2022-11-06T12:15:25.868Z,68.61
2022-11-06T12:16:26.137Z,68.91
2022-11-06T12:17:26.417Z,68.91
2022-11-06T12:18:27.775Z,68.68
2022-11-06T12:19:26.147Z,67.76
2022-11-06T12:20:26.420Z,66.74
2022-11-06T12:21:25.875Z,66.44
2022-11-06T12:22:26.458Z,66.23
2022-11-06T12:23:25.780Z,66.03
2022-11-06T12:24:25.753Z,66.33
2022-11-06T12:25:25.731Z,66.74
2022-11-06T12:26:26.430Z,66.64
2022-11-06T12:27:26.677Z,66.54
2022-11-06T12:28:26.664Z,66.74
2022-11-06T12:29:26.650Z,66.82
2022-11-06T12:30:26.477Z,67.02
2022-11-06T12:31:27.123Z,66.82
2022-11-06T12:32:27.110Z,66.00
2022-11-06T12:33:52.057Z,65.08
2022-11-06T12:34:27.199Z,65.19
2022-11-06T12:35:26.229Z,65.28
2022-11-06T12:36:27.053Z,64.75
2022-11-06T12:37:27.070Z,64.54
2022-11-06T12:38:27.068Z,63.93
2022-11-06T12:39:25.591Z,63.93
2022-11-06T12:40:26.063Z,64.03
2022-11-06T12:41:27.016Z,64.03
2022-11-06T12:42:27.001Z,63.53
2022-11-06T12:43:25.537Z,63.73
2022-11-06T12:44:26.317Z,63.53
2022-11-06T12:45:26.517Z,63.19
2022-11-06T12:46:26.098Z,63.49
2022-11-06T12:47:26.723Z,63.22
2022-11-06T12:48:26.427Z,63.32
2022-11-06T12:49:26.959Z,63.42
2022-11-06T12:50:25.843Z,63.22
2022-11-06T12:51:25.447Z,62.92
2022-11-06T12:52:25.426Z,63.22